• Join FlightAware (Why Join?)
  • Login
  • US Flag 
11:54AM EDT


 

Airport Tracker/Info


-or-


 

Live Flight TrackerFlight Track Log ✈ C-GONN ✈ 10-Apr-2013 ✈ CYYJ - CYVR

Flight Track Log - Related Links

Times and Time Zones

All times are in EDT time to prevent confusion due to time zone crossing. See the C-GONN flight status page for this flight to view local times or setup timezone preferences in your user account.

Time Position Orientation Groundspeed Altitude Reporting Facility
EDT Latitude Longitude Course Direction KTS MPH feet Rate Location/Type
11:59AM 48.6333 -123.4167 North 110 127 200  Level Vancouver Center
12:00PM 48.6500 -123.3667 63° Northeast 170 196 1,300 1,140 Climbing Vancouver Center
12:01PM 48.6833 -123.3167 45° Northeast 180 207 2,500 840 Climbing Vancouver Center
12:02PM 48.7167 -123.2667 45° Northeast 190 219 3,000 180 Climbing Vancouver Center
12:03PM 48.9061 -123.4188 North  Level FlightAware Approximate
12:03PM 48.7667 -123.3167 327° Northwest 210 242 2,900  Level Vancouver Center
12:04PM 48.8167 -123.3500 336° Northwest 220 253 3,600 960 Climbing Vancouver Center
12:05PM 48.8667 -123.4000 327° Northwest 170 196 4,900 600 Climbing Vancouver Center
12:06PM 48.9167 -123.4167 348° North 210 242 4,900  Level Vancouver Center
12:07PM 48.9833 -123.4000 North 230 265 5,000  Climbing Vancouver Center
12:08PM 49.0500 -123.4000 360° North 230 265 4,900  Descending Vancouver Center
12:09PM 49.1000 -123.4167 348° North 230 265 5,000 -300 Climbing Vancouver Center
12:10PM 49.1667 -123.4500 342° North 230 265 4,400 -780 Descending Vancouver Center
12:11PM 49.2333 -123.4667 351° North 230 265 3,500 -420 Descending Vancouver Center
12:12PM 49.2833 -123.5000 336° Northwest 220 253 3,600  Climbing Vancouver Center
12:13PM 49.3167 -123.4167 58° Northeast 230 265 3,500 -240 Descending Vancouver Center
12:14PM 49.3000 -123.3333 107° East 210 242 3,200 -660 Descending Vancouver Center
12:15PM 49.2667 -123.3167 162° South 170 196 2,200 -960 Descending Vancouver Center
12:16PM 49.2333 -123.2667 136° Southeast 150 173 1,300 -780 Descending Vancouver Center
12:17PM 49.2000 -123.2333 147° Southeast 110 127 700 -600 Descending Vancouver Center
12:18PM 49.1833 -123.2167 147° Southeast 100 115 100 -600 Descending Vancouver Center